sensor_id;sensor_type;location;lat;lon;timestamp;temperature;humidity
3996;DHT22;2012;49.794;9.722;2023-06-22T00:01:48;20.70;99.90
3996;DHT22;2012;49.794;9.722;2023-06-22T00:04:19;20.70;99.90
3996;DHT22;2012;49.794;9.722;2023-06-22T00:06:48;20.60;99.90
3996;DHT22;2012;49.794;9.722;2023-06-22T00:09:25;20.80;99.90
3996;DHT22;2012;49.794;9.722;2023-06-22T00:11:52;20.60;99.90
3996;DHT22;2012;49.794;9.722;2023-06-22T00:14:20;20.40;99.90
3996;DHT22;2012;49.794;9.722;2023-06-22T00:16:48;20.40;99.90
3996;DHT22;2012;49.794;9.722;2023-06-22T00:19:17;20.70;99.90
3996;DHT22;2012;49.794;9.722;2023-06-22T00:21:48;20.70;99.90
3996;DHT22;2012;49.794;9.722;2023-06-22T00:24:21;20.60;99.90
3996;DHT22;2012;49.794;9.722;2023-06-22T00:26:48;20.70;99.90
3996;DHT22;2012;49.794;9.722;2023-06-22T00:29:16;20.50;99.90
3996;DHT22;2012;49.794;9.722;2023-06-22T00:31:46;20.60;99.90
3996;DHT22;2012;49.794;9.722;2023-06-22T00:34:14;20.70;99.90
3996;DHT22;2012;49.794;9.722;2023-06-22T00:36:47;20.60;99.90
3996;DHT22;2012;49.794;9.722;2023-06-22T00:39:15;20.70;99.90
3996;DHT22;2012;49.794;9.722;2023-06-22T00:41:42;20.60;99.90
3996;DHT22;2012;49.794;9.722;2023-06-22T00:44:10;20.60;99.90
3996;DHT22;2012;49.794;9.722;2023-06-22T00:46:40;20.50;99.90
3996;DHT22;2012;49.794;9.722;2023-06-22T00:49:08;20.60;99.90
3996;DHT22;2012;49.794;9.722;2023-06-22T00:51:37;20.60;99.90
3996;DHT22;2012;49.794;9.722;2023-06-22T00:54:06;20.60;99.90
3996;DHT22;2012;49.794;9.722;2023-06-22T00:56:33;20.60;99.90
3996;DHT22;2012;49.794;9.722;2023-06-22T00:59:04;20.70;99.90
3996;DHT22;2012;49.794;9.722;2023-06-22T01:01:34;20.60;99.90
3996;DHT22;2012;49.794;9.722;2023-06-22T01:04:05;20.60;99.90
3996;DHT22;2012;49.794;9.722;2023-06-22T01:06:42;20.50;99.90
3996;DHT22;2012;49.794;9.722;2023-06-22T01:09:28;20.30;99.90
3996;DHT22;2012;49.794;9.722;2023-06-22T01:12:06;20.40;99.90
3996;DHT22;2012;49.794;9.722;2023-06-22T01:14:40;20.50;99.90
3996;DHT22;2012;49.794;9.722;2023-06-22T01:17:12;20.50;99.90
3996;DHT22;2012;49.794;9.722;2023-06-22T01:19:49;20.10;99.90
3996;DHT22;2012;49.794;9.722;2023-06-22T01:22:30;20.10;99.90
3996;DHT22;2012;49.794;9.722;2023-06-22T01:30:08;20.40;99.90
3996;DHT22;2012;49.794;9.722;2023-06-22T01:32:38;20.50;99.90
3996;DHT22;2012;49.794;9.722;2023-06-22T01:35:07;20.50;99.90
3996;DHT22;2012;49.794;9.722;2023-06-22T01:37:36;20.50;99.90
3996;DHT22;2012;49.794;9.722;2023-06-22T01:40:06;20.50;99.90
3996;DHT22;2012;49.794;9.722;2023-06-22T01:42:37;20.30;99.90
3996;DHT22;2012;49.794;9.722;2023-06-22T01:45:07;20.30;99.90
3996;DHT22;2012;49.794;9.722;2023-06-22T01:47:34;20.40;99.90
3996;DHT22;2012;49.794;9.722;2023-06-22T01:50:01;20.30;99.90
3996;DHT22;2012;49.794;9.722;2023-06-22T01:52:28;20.30;99.90
3996;DHT22;2012;49.794;9.722;2023-06-22T01:54:55;20.20;99.90
3996;DHT22;2012;49.794;9.722;2023-06-22T01:57:24;20.20;99.90
3996;DHT22;2012;49.794;9.722;2023-06-22T02:00:02;20.30;99.90
3996;DHT22;2012;49.794;9.722;2023-06-22T02:03:08;20.40;99.90
3996;DHT22;2012;49.794;9.722;2023-06-22T02:05:58;20.50;99.90
3996;DHT22;2012;49.794;9.722;2023-06-22T02:08:40;20.50;99.90
3996;DHT22;2012;49.794;9.722;2023-06-22T02:11:09;20.60;99.90
3996;DHT22;2012;49.794;9.722;2023-06-22T02:13:37;20.60;99.90
3996;DHT22;2012;49.794;9.722;2023-06-22T02:16:13;20.70;99.90
3996;DHT22;2012;49.794;9.722;2023-06-22T02:18:48;20.80;99.90
3996;DHT22;2012;49.794;9.722;2023-06-22T02:21:18;20.80;99.90
3996;DHT22;2012;49.794;9.722;2023-06-22T02:23:46;20.80;99.90
3996;DHT22;2012;49.794;9.722;2023-06-22T02:26:15;20.70;99.90
3996;DHT22;2012;49.794;9.722;2023-06-22T02:28:42;20.20;99.90
3996;DHT22;2012;49.794;9.722;2023-06-22T02:31:09;20.00;99.90
3996;DHT22;2012;49.794;9.722;2023-06-22T02:33:36;20.00;99.90
3996;DHT22;2012;49.794;9.722;2023-06-22T02:36:03;20.10;99.90
3996;DHT22;2012;49.794;9.722;2023-06-22T02:38:32;20.20;99.90
3996;DHT22;2012;49.794;9.722;2023-06-22T02:41:03;20.20;99.90
3996;DHT22;2012;49.794;9.722;2023-06-22T02:43:29;20.20;99.90
3996;DHT22;2012;49.794;9.722;2023-06-22T02:45:56;20.30;99.90
3996;DHT22;2012;49.794;9.722;2023-06-22T02:48:23;20.20;99.90
3996;DHT22;2012;49.794;9.722;2023-06-22T02:50:50;20.30;99.90
3996;DHT22;2012;49.794;9.722;2023-06-22T02:53:17;20.40;99.90
3996;DHT22;2012;49.794;9.722;2023-06-22T02:55:46;20.40;99.90
3996;DHT22;2012;49.794;9.722;2023-06-22T02:58:13;20.30;99.90
3996;DHT22;2012;49.794;9.722;2023-06-22T03:00:40;20.30;99.90
3996;DHT22;2012;49.794;9.722;2023-06-22T03:03:07;20.40;99.90
3996;DHT22;2012;49.794;9.722;2023-06-22T03:05:34;20.40;99.90
3996;DHT22;2012;49.794;9.722;2023-06-22T03:08:02;20.40;99.90
3996;DHT22;2012;49.794;9.722;2023-06-22T03:10:32;20.40;99.90
3996;DHT22;2012;49.794;9.722;2023-06-22T03:12:58;20.50;99.90
3996;DHT22;2012;49.794;9.722;2023-06-22T03:15:25;20.60;99.90
3996;DHT22;2012;49.794;9.722;2023-06-22T03:17:53;20.60;99.90
3996;DHT22;2012;49.794;9.722;2023-06-22T03:20:22;20.70;99.90
3996;DHT22;2012;49.794;9.722;2023-06-22T03:22:48;20.60;99.90
3996;DHT22;2012;49.794;9.722;2023-06-22T03:25:15;20.70;99.90
3996;DHT22;2012;49.794;9.722;2023-06-22T03:27:45;20.60;99.90
3996;DHT22;2012;49.794;9.722;2023-06-22T03:30:12;20.50;99.90
3996;DHT22;2012;49.794;9.722;2023-06-22T03:32:39;20.50;99.90
3996;DHT22;2012;49.794;9.722;2023-06-22T03:35:06;20.60;99.90
3996;DHT22;2012;49.794;9.722;2023-06-22T03:37:35;20.70;99.90
3996;DHT22;2012;49.794;9.722;2023-06-22T03:40:02;20.50;99.90
3996;DHT22;2012;49.794;9.722;2023-06-22T03:42:34;20.50;99.90
3996;DHT22;2012;49.794;9.722;2023-06-22T03:45:05;20.60;99.90
3996;DHT22;2012;49.794;9.722;2023-06-22T03:47:32;20.60;99.90
3996;DHT22;2012;49.794;9.722;2023-06-22T03:50:00;20.30;99.90
3996;DHT22;2012;49.794;9.722;2023-06-22T03:52:27;20.30;99.90
3996;DHT22;2012;49.794;9.722;2023-06-22T03:54:54;20.50;99.90
3996;DHT22;2012;49.794;9.722;2023-06-22T03:57:20;20.60;99.90
3996;DHT22;2012;49.794;9.722;2023-06-22T03:59:48;20.50;99.90
3996;DHT22;2012;49.794;9.722;2023-06-22T04:02:14;20.50;99.90
3996;DHT22;2012;49.794;9.722;2023-06-22T04:04:41;20.50;99.90
3996;DHT22;2012;49.794;9.722;2023-06-22T04:07:08;20.50;99.90
3996;DHT22;2012;49.794;9.722;2023-06-22T04:09:35;20.40;99.90
3996;DHT22;2012;49.794;9.722;2023-06-22T04:12:02;20.50;99.90
3996;DHT22;2012;49.794;9.722;2023-06-22T04:14:29;20.60;99.90
3996;DHT22;2012;49.794;9.722;2023-06-22T04:16:57;20.50;99.90
3996;DHT22;2012;49.794;9.722;2023-06-22T04:19:24;20.50;99.90
3996;DHT22;2012;49.794;9.722;2023-06-22T04:21:51;20.60;99.90
3996;DHT22;2012;49.794;9.722;2023-06-22T04:24:18;20.60;99.90
3996;DHT22;2012;49.794;9.722;2023-06-22T04:26:45;20.70;99.90
3996;DHT22;2012;49.794;9.722;2023-06-22T04:29:13;20.70;99.90
3996;DHT22;2012;49.794;9.722;2023-06-22T04:31:40;20.70;99.90
3996;DHT22;2012;49.794;9.722;2023-06-22T04:34:08;20.70;99.90
3996;DHT22;2012;49.794;9.722;2023-06-22T04:36:36;20.70;99.90
3996;DHT22;2012;49.794;9.722;2023-06-22T04:39:05;20.70;99.90
3996;DHT22;2012;49.794;9.722;2023-06-22T04:41:33;21.10;99.90
3996;DHT22;2012;49.794;9.722;2023-06-22T04:44:12;21.50;99.90
3996;DHT22;2012;49.794;9.722;2023-06-22T04:46:40;21.70;99.90
3996;DHT22;2012;49.794;9.722;2023-06-22T04:49:07;21.80;99.90
3996;DHT22;2012;49.794;9.722;2023-06-22T04:51:40;21.80;99.90
3996;DHT22;2012;49.794;9.722;2023-06-22T04:54:08;21.50;99.90
3996;DHT22;2012;49.794;9.722;2023-06-22T04:56:36;21.70;99.90
3996;DHT22;2012;49.794;9.722;2023-06-22T04:59:03;21.60;99.90
3996;DHT22;2012;49.794;9.722;2023-06-22T05:01:30;21.40;99.90
3996;DHT22;2012;49.794;9.722;2023-06-22T05:04:01;21.20;99.90
3996;DHT22;2012;49.794;9.722;2023-06-22T05:06:29;21.20;99.90
3996;DHT22;2012;49.794;9.722;2023-06-22T05:08:57;21.10;99.90
3996;DHT22;2012;49.794;9.722;2023-06-22T05:11:26;21.20;99.90
3996;DHT22;2012;49.794;9.722;2023-06-22T05:13:53;21.10;99.90
3996;DHT22;2012;49.794;9.722;2023-06-22T05:16:20;21.20;99.90
3996;DHT22;2012;49.794;9.722;2023-06-22T05:18:54;21.20;99.90
3996;DHT22;2012;49.794;9.722;2023-06-22T05:21:23;21.10;99.90
3996;DHT22;2012;49.794;9.722;2023-06-22T05:23:51;21.20;99.90
3996;DHT22;2012;49.794;9.722;2023-06-22T05:26:19;21.20;99.90
3996;DHT22;2012;49.794;9.722;2023-06-22T05:28:47;21.30;99.90
3996;DHT22;2012;49.794;9.722;2023-06-22T05:31:15;21.30;99.90
3996;DHT22;2012;49.794;9.722;2023-06-22T05:33:43;21.30;99.90
3996;DHT22;2012;49.794;9.722;2023-06-22T05:36:10;21.40;99.90
3996;DHT22;2012;49.794;9.722;2023-06-22T05:38:37;21.40;99.90
3996;DHT22;2012;49.794;9.722;2023-06-22T05:41:05;21.30;99.90
3996;DHT22;2012;49.794;9.722;2023-06-22T05:43:32;21.30;99.90
3996;DHT22;2012;49.794;9.722;2023-06-22T05:46:03;21.40;99.90
3996;DHT22;2012;49.794;9.722;2023-06-22T05:48:30;21.50;99.90
3996;DHT22;2012;49.794;9.722;2023-06-22T05:50:57;21.50;99.90
3996;DHT22;2012;49.794;9.722;2023-06-22T05:53:24;21.50;99.90
3996;DHT22;2012;49.794;9.722;2023-06-22T05:55:51;21.50;99.90
3996;DHT22;2012;49.794;9.722;2023-06-22T05:58:18;21.50;99.90
3996;DHT22;2012;49.794;9.722;2023-06-22T06:00:45;21.50;99.90
3996;DHT22;2012;49.794;9.722;2023-06-22T06:03:12;21.50;99.90
3996;DHT22;2012;49.794;9.722;2023-06-22T06:05:43;21.60;99.90
3996;DHT22;2012;49.794;9.722;2023-06-22T06:08:12;21.60;99.90
3996;DHT22;2012;49.794;9.722;2023-06-22T06:10:38;21.80;99.90
3996;DHT22;2012;49.794;9.722;2023-06-22T06:13:06;21.90;99.90
3996;DHT22;2012;49.794;9.722;2023-06-22T06:15:34;22.00;99.90
3996;DHT22;2012;49.794;9.722;2023-06-22T06:18:01;22.00;99.90
3996;DHT22;2012;49.794;9.722;2023-06-22T06:20:32;22.00;99.90
3996;DHT22;2012;49.794;9.722;2023-06-22T06:23:00;22.10;99.90
3996;DHT22;2012;49.794;9.722;2023-06-22T06:25:26;22.10;99.90
3996;DHT22;2012;49.794;9.722;2023-06-22T06:27:53;22.00;99.90
3996;DHT22;2012;49.794;9.722;2023-06-22T06:30:21;22.10;99.90
3996;DHT22;2012;49.794;9.722;2023-06-22T06:32:50;22.10;99.90
3996;DHT22;2012;49.794;9.722;2023-06-22T06:35:17;22.20;99.90
3996;DHT22;2012;49.794;9.722;2023-06-22T06:37:45;22.20;99.90
3996;DHT22;2012;49.794;9.722;2023-06-22T06:40:13;22.40;99.90
3996;DHT22;2012;49.794;9.722;2023-06-22T06:42:45;22.50;99.90
3996;DHT22;2012;49.794;9.722;2023-06-22T06:45:15;22.50;99.90
3996;DHT22;2012;49.794;9.722;2023-06-22T06:47:42;22.50;99.90
3996;DHT22;2012;49.794;9.722;2023-06-22T06:50:09;22.60;99.90
3996;DHT22;2012;49.794;9.722;2023-06-22T06:52:36;22.70;99.90
3996;DHT22;2012;49.794;9.722;2023-06-22T06:55:05;22.80;99.90
3996;DHT22;2012;49.794;9.722;2023-06-22T06:57:35;23.00;99.90
3996;DHT22;2012;49.794;9.722;2023-06-22T07:00:14;23.00;99.90
3996;DHT22;2012;49.794;9.722;2023-06-22T07:02:43;23.00;99.90
3996;DHT22;2012;49.794;9.722;2023-06-22T07:05:11;22.90;99.90
3996;DHT22;2012;49.794;9.722;2023-06-22T07:07:39;22.90;99.90
3996;DHT22;2012;49.794;9.722;2023-06-22T07:10:06;23.00;99.90
3996;DHT22;2012;49.794;9.722;2023-06-22T07:12:33;23.00;99.90
3996;DHT22;2012;49.794;9.722;2023-06-22T07:15:05;23.10;99.90
3996;DHT22;2012;49.794;9.722;2023-06-22T07:17:32;23.20;99.90
3996;DHT22;2012;49.794;9.722;2023-06-22T07:19:59;23.20;99.90
3996;DHT22;2012;49.794;9.722;2023-06-22T07:22:26;23.30;99.90
3996;DHT22;2012;49.794;9.722;2023-06-22T07:24:53;23.40;99.90
3996;DHT22;2012;49.794;9.722;2023-06-22T07:27:20;23.60;99.90
3996;DHT22;2012;49.794;9.722;2023-06-22T07:29:47;23.60;99.90
3996;DHT22;2012;49.794;9.722;2023-06-22T07:32:14;23.70;99.90
3996;DHT22;2012;49.794;9.722;2023-06-22T07:34:41;23.70;99.90
3996;DHT22;2012;49.794;9.722;2023-06-22T07:37:08;23.70;99.90
3996;DHT22;2012;49.794;9.722;2023-06-22T07:39:35;23.80;99.90
3996;DHT22;2012;49.794;9.722;2023-06-22T07:42:02;23.80;99.90
3996;DHT22;2012;49.794;9.722;2023-06-22T07:44:28;24.00;99.90
3996;DHT22;2012;49.794;9.722;2023-06-22T07:46:55;24.00;99.90
3996;DHT22;2012;49.794;9.722;2023-06-22T07:49:22;24.20;99.90
3996;DHT22;2012;49.794;9.722;2023-06-22T07:51:49;24.20;99.90
3996;DHT22;2012;49.794;9.722;2023-06-22T07:54:15;24.20;99.90
3996;DHT22;2012;49.794;9.722;2023-06-22T07:56:43;24.30;99.90
3996;DHT22;2012;49.794;9.722;2023-06-22T07:59:10;24.40;99.90
3996;DHT22;2012;49.794;9.722;2023-06-22T08:01:37;24.50;99.90
3996;DHT22;2012;49.794;9.722;2023-06-22T08:04:04;24.30;99.90
3996;DHT22;2012;49.794;9.722;2023-06-22T08:06:32;24.40;99.90
3996;DHT22;2012;49.794;9.722;2023-06-22T08:08:59;24.40;99.90
3996;DHT22;2012;49.794;9.722;2023-06-22T08:11:26;24.60;99.90
3996;DHT22;2012;49.794;9.722;2023-06-22T08:13:53;24.60;99.90
3996;DHT22;2012;49.794;9.722;2023-06-22T08:16:22;24.70;99.90
3996;DHT22;2012;49.794;9.722;2023-06-22T08:18:49;24.80;99.90
3996;DHT22;2012;49.794;9.722;2023-06-22T08:21:16;24.90;99.90
3996;DHT22;2012;49.794;9.722;2023-06-22T08:23:43;24.90;99.90
3996;DHT22;2012;49.794;9.722;2023-06-22T08:26:10;25.00;99.90
3996;DHT22;2012;49.794;9.722;2023-06-22T08:28:37;25.10;99.90
3996;DHT22;2012;49.794;9.722;2023-06-22T08:31:04;25.20;99.90
3996;DHT22;2012;49.794;9.722;2023-06-22T08:33:31;25.40;99.90
3996;DHT22;2012;49.794;9.722;2023-06-22T08:35:58;25.30;99.90
3996;DHT22;2012;49.794;9.722;2023-06-22T08:38:25;25.20;99.90
3996;DHT22;2012;49.794;9.722;2023-06-22T08:40:53;25.30;99.90
3996;DHT22;2012;49.794;9.722;2023-06-22T08:43:20;25.50;99.90
3996;DHT22;2012;49.794;9.722;2023-06-22T08:45:47;25.60;99.90
3996;DHT22;2012;49.794;9.722;2023-06-22T08:48:14;25.70;99.90
3996;DHT22;2012;49.794;9.722;2023-06-22T08:50:41;25.80;99.90
3996;DHT22;2012;49.794;9.722;2023-06-22T08:53:08;25.60;99.90
3996;DHT22;2012;49.794;9.722;2023-06-22T08:55:35;25.90;99.90
3996;DHT22;2012;49.794;9.722;2023-06-22T08:58:01;26.00;99.90
3996;DHT22;2012;49.794;9.722;2023-06-22T09:00:28;26.10;99.90
3996;DHT22;2012;49.794;9.722;2023-06-22T09:02:59;26.30;99.90
3996;DHT22;2012;49.794;9.722;2023-06-22T09:05:26;26.40;99.90
3996;DHT22;2012;49.794;9.722;2023-06-22T09:07:54;26.40;99.90
3996;DHT22;2012;49.794;9.722;2023-06-22T09:10:25;26.60;99.90
3996;DHT22;2012;49.794;9.722;2023-06-22T09:12:53;26.60;99.90
3996;DHT22;2012;49.794;9.722;2023-06-22T09:15:20;26.70;99.90
3996;DHT22;2012;49.794;9.722;2023-06-22T09:17:47;26.80;99.90
3996;DHT22;2012;49.794;9.722;2023-06-22T09:20:14;26.80;99.90
3996;DHT22;2012;49.794;9.722;2023-06-22T09:22:42;26.90;99.90
3996;DHT22;2012;49.794;9.722;2023-06-22T09:25:09;27.10;99.90
3996;DHT22;2012;49.794;9.722;2023-06-22T09:27:36;27.20;99.90
3996;DHT22;2012;49.794;9.722;2023-06-22T09:30:04;27.30;99.90
3996;DHT22;2012;49.794;9.722;2023-06-22T09:32:31;27.30;99.90
3996;DHT22;2012;49.794;9.722;2023-06-22T09:34:58;27.30;99.90
3996;DHT22;2012;49.794;9.722;2023-06-22T09:37:25;27.40;99.90
3996;DHT22;2012;49.794;9.722;2023-06-22T09:39:51;27.70;99.90
3996;DHT22;2012;49.794;9.722;2023-06-22T09:42:18;27.80;99.90
3996;DHT22;2012;49.794;9.722;2023-06-22T09:44:45;27.80;99.90
3996;DHT22;2012;49.794;9.722;2023-06-22T09:47:12;28.00;99.90
3996;DHT22;2012;49.794;9.722;2023-06-22T09:49:39;27.90;99.90
3996;DHT22;2012;49.794;9.722;2023-06-22T09:52:13;27.90;99.90
3996;DHT22;2012;49.794;9.722;2023-06-22T09:54:40;28.00;99.90
3996;DHT22;2012;49.794;9.722;2023-06-22T09:57:07;28.10;99.90
3996;DHT22;2012;49.794;9.722;2023-06-22T09:59:34;28.20;99.90
3996;DHT22;2012;49.794;9.722;2023-06-22T10:02:01;28.30;99.90
3996;DHT22;2012;49.794;9.722;2023-06-22T10:04:28;28.50;99.90
3996;DHT22;2012;49.794;9.722;2023-06-22T10:06:55;28.70;99.90
3996;DHT22;2012;49.794;9.722;2023-06-22T10:09:22;28.60;99.90
3996;DHT22;2012;49.794;9.722;2023-06-22T10:11:49;28.70;99.90
3996;DHT22;2012;49.794;9.722;2023-06-22T10:14:16;28.80;99.90
3996;DHT22;2012;49.794;9.722;2023-06-22T10:16:43;28.90;99.90
3996;DHT22;2012;49.794;9.722;2023-06-22T10:19:10;28.80;99.90
3996;DHT22;2012;49.794;9.722;2023-06-22T10:21:37;29.00;99.90
3996;DHT22;2012;49.794;9.722;2023-06-22T10:24:04;28.90;99.90
3996;DHT22;2012;49.794;9.722;2023-06-22T10:26:33;28.90;99.90
3996;DHT22;2012;49.794;9.722;2023-06-22T10:29:01;28.90;99.90
3996;DHT22;2012;49.794;9.722;2023-06-22T10:31:42;29.10;99.90
3996;DHT22;2012;49.794;9.722;2023-06-22T10:34:09;29.30;99.90
3996;DHT22;2012;49.794;9.722;2023-06-22T10:36:36;29.40;99.90
3996;DHT22;2012;49.794;9.722;2023-06-22T10:39:03;29.40;99.90
3996;DHT22;2012;49.794;9.722;2023-06-22T10:41:30;29.60;99.90
3996;DHT22;2012;49.794;9.722;2023-06-22T10:43:58;29.80;99.90
3996;DHT22;2012;49.794;9.722;2023-06-22T10:46:25;29.90;99.90
3996;DHT22;2012;49.794;9.722;2023-06-22T10:48:52;30.10;99.90
3996;DHT22;2012;49.794;9.722;2023-06-22T10:51:21;30.20;99.90
3996;DHT22;2012;49.794;9.722;2023-06-22T10:53:48;30.10;99.90
3996;DHT22;2012;49.794;9.722;2023-06-22T10:56:15;30.10;99.90
3996;DHT22;2012;49.794;9.722;2023-06-22T10:58:44;30.00;99.90
3996;DHT22;2012;49.794;9.722;2023-06-22T11:01:11;30.10;99.90
3996;DHT22;2012;49.794;9.722;2023-06-22T11:03:58;30.30;99.90
3996;DHT22;2012;49.794;9.722;2023-06-22T11:06:25;30.00;99.90
3996;DHT22;2012;49.794;9.722;2023-06-22T11:08:52;29.90;99.90
3996;DHT22;2012;49.794;9.722;2023-06-22T11:11:32;30.00;99.90
3996;DHT22;2012;49.794;9.722;2023-06-22T11:13:59;30.30;99.90
3996;DHT22;2012;49.794;9.722;2023-06-22T11:16:27;30.40;99.90
3996;DHT22;2012;49.794;9.722;2023-06-22T11:18:54;30.10;99.90
3996;DHT22;2012;49.794;9.722;2023-06-22T11:21:20;30.00;99.90
3996;DHT22;2012;49.794;9.722;2023-06-22T11:23:47;30.10;99.90
3996;DHT22;2012;49.794;9.722;2023-06-22T11:26:15;30.10;99.90
3996;DHT22;2012;49.794;9.722;2023-06-22T11:28:42;30.40;99.90
3996;DHT22;2012;49.794;9.722;2023-06-22T11:31:09;30.50;99.90
3996;DHT22;2012;49.794;9.722;2023-06-22T11:33:51;30.70;99.90
3996;DHT22;2012;49.794;9.722;2023-06-22T11:36:19;30.80;99.90
3996;DHT22;2012;49.794;9.722;2023-06-22T11:38:46;31.10;99.90
3996;DHT22;2012;49.794;9.722;2023-06-22T11:41:14;30.90;99.90
3996;DHT22;2012;49.794;9.722;2023-06-22T11:43:41;31.00;99.90
3996;DHT22;2012;49.794;9.722;2023-06-22T11:46:07;30.90;99.90
3996;DHT22;2012;49.794;9.722;2023-06-22T11:48:34;31.10;99.60
3996;DHT22;2012;49.794;9.722;2023-06-22T11:51:01;31.20;99.90
3996;DHT22;2012;49.794;9.722;2023-06-22T11:53:29;31.30;99.50
3996;DHT22;2012;49.794;9.722;2023-06-22T11:55:56;31.40;99.90
3996;DHT22;2012;49.794;9.722;2023-06-22T11:58:23;31.30;99.50
3996;DHT22;2012;49.794;9.722;2023-06-22T12:00:50;31.40;99.40
3996;DHT22;2012;49.794;9.722;2023-06-22T12:03:19;31.10;96.40
3996;DHT22;2012;49.794;9.722;2023-06-22T12:05:50;30.80;97.00
3996;DHT22;2012;49.794;9.722;2023-06-22T12:08:17;30.70;99.30
3996;DHT22;2012;49.794;9.722;2023-06-22T12:10:45;30.60;98.80
3996;DHT22;2012;49.794;9.722;2023-06-22T12:13:12;30.60;99.20
3996;DHT22;2012;49.794;9.722;2023-06-22T12:15:39;30.40;99.90
3996;DHT22;2012;49.794;9.722;2023-06-22T12:18:06;30.40;98.10
3996;DHT22;2012;49.794;9.722;2023-06-22T12:20:33;30.30;99.20
3996;DHT22;2012;49.794;9.722;2023-06-22T12:23:01;30.30;99.90
3996;DHT22;2012;49.794;9.722;2023-06-22T12:25:28;30.30;99.90
3996;DHT22;2012;49.794;9.722;2023-06-22T12:27:55;30.30;99.90
3996;DHT22;2012;49.794;9.722;2023-06-22T12:30:22;30.40;99.90
3996;DHT22;2012;49.794;9.722;2023-06-22T12:32:49;30.50;99.90
3996;DHT22;2012;49.794;9.722;2023-06-22T12:35:19;30.50;99.90
3996;DHT22;2012;49.794;9.722;2023-06-22T12:37:46;30.50;99.90
3996;DHT22;2012;49.794;9.722;2023-06-22T12:40:12;30.50;99.90
3996;DHT22;2012;49.794;9.722;2023-06-22T12:42:40;30.50;99.00
3996;DHT22;2012;49.794;9.722;2023-06-22T12:45:07;30.70;99.90
3996;DHT22;2012;49.794;9.722;2023-06-22T12:47:34;30.60;99.50
3996;DHT22;2012;49.794;9.722;2023-06-22T12:50:01;30.70;99.90
3996;DHT22;2012;49.794;9.722;2023-06-22T12:52:30;30.60;99.20
3996;DHT22;2012;49.794;9.722;2023-06-22T12:54:58;30.60;99.20
3996;DHT22;2012;49.794;9.722;2023-06-22T12:57:24;30.60;99.90
3996;DHT22;2012;49.794;9.722;2023-06-22T12:59:52;30.50;99.90
3996;DHT22;2012;49.794;9.722;2023-06-22T13:02:18;30.40;99.90
3996;DHT22;2012;49.794;9.722;2023-06-22T13:04:45;30.40;99.90
3996;DHT22;2012;49.794;9.722;2023-06-22T13:07:12;30.30;99.90
3996;DHT22;2012;49.794;9.722;2023-06-22T13:09:50;30.20;99.90
3996;DHT22;2012;49.794;9.722;2023-06-22T13:12:20;30.20;99.90
3996;DHT22;2012;49.794;9.722;2023-06-22T13:14:48;30.10;99.90
3996;DHT22;2012;49.794;9.722;2023-06-22T13:17:15;30.10;99.90
3996;DHT22;2012;49.794;9.722;2023-06-22T13:19:42;30.10;99.90
3996;DHT22;2012;49.794;9.722;2023-06-22T13:22:32;30.00;99.90
3996;DHT22;2012;49.794;9.722;2023-06-22T13:25:01;30.00;99.90
3996;DHT22;2012;49.794;9.722;2023-06-22T13:27:28;30.00;99.90
3996;DHT22;2012;49.794;9.722;2023-06-22T13:29:55;30.00;99.90
3996;DHT22;2012;49.794;9.722;2023-06-22T13:32:22;30.00;99.90
3996;DHT22;2012;49.794;9.722;2023-06-22T13:34:50;30.10;99.90
3996;DHT22;2012;49.794;9.722;2023-06-22T13:37:18;30.10;99.90
3996;DHT22;2012;49.794;9.722;2023-06-22T13:39:45;30.20;99.90
3996;DHT22;2012;49.794;9.722;2023-06-22T13:42:12;30.20;99.90
3996;DHT22;2012;49.794;9.722;2023-06-22T13:44:39;30.20;99.90
3996;DHT22;2012;49.794;9.722;2023-06-22T13:47:06;30.20;99.90
3996;DHT22;2012;49.794;9.722;2023-06-22T13:49:35;30.40;99.90
3996;DHT22;2012;49.794;9.722;2023-06-22T13:52:03;30.30;99.90
3996;DHT22;2012;49.794;9.722;2023-06-22T13:54:30;30.30;99.90
3996;DHT22;2012;49.794;9.722;2023-06-22T13:57:00;30.20;99.90
3996;DHT22;2012;49.794;9.722;2023-06-22T13:59:27;30.20;99.90
3996;DHT22;2012;49.794;9.722;2023-06-22T14:01:54;30.20;99.90
3996;DHT22;2012;49.794;9.722;2023-06-22T14:04:23;30.20;99.90
3996;DHT22;2012;49.794;9.722;2023-06-22T14:06:50;30.10;99.90
3996;DHT22;2012;49.794;9.722;2023-06-22T14:09:18;30.10;99.90
3996;DHT22;2012;49.794;9.722;2023-06-22T14:11:45;30.00;99.90
3996;DHT22;2012;49.794;9.722;2023-06-22T14:14:12;30.00;99.90
3996;DHT22;2012;49.794;9.722;2023-06-22T14:16:39;29.90;99.90
3996;DHT22;2012;49.794;9.722;2023-06-22T14:19:06;29.90;99.90
3996;DHT22;2012;49.794;9.722;2023-06-22T14:21:32;29.80;99.90
3996;DHT22;2012;49.794;9.722;2023-06-22T14:23:59;30.00;99.90
3996;DHT22;2012;49.794;9.722;2023-06-22T14:26:26;30.00;99.90
3996;DHT22;2012;49.794;9.722;2023-06-22T14:28:53;30.10;99.90
3996;DHT22;2012;49.794;9.722;2023-06-22T14:31:20;30.10;99.90
3996;DHT22;2012;49.794;9.722;2023-06-22T14:33:48;30.10;99.90
3996;DHT22;2012;49.794;9.722;2023-06-22T14:36:16;30.20;99.90
3996;DHT22;2012;49.794;9.722;2023-06-22T14:38:45;30.30;99.90
3996;DHT22;2012;49.794;9.722;2023-06-22T14:41:13;30.70;99.90
3996;DHT22;2012;49.794;9.722;2023-06-22T14:43:50;30.90;99.90
3996;DHT22;2012;49.794;9.722;2023-06-22T14:46:19;30.90;99.90
3996;DHT22;2012;49.794;9.722;2023-06-22T14:48:47;31.20;99.90
3996;DHT22;2012;49.794;9.722;2023-06-22T14:51:14;31.30;99.90
3996;DHT22;2012;49.794;9.722;2023-06-22T14:53:44;31.40;99.90
3996;DHT22;2012;49.794;9.722;2023-06-22T14:56:12;31.50;99.90
3996;DHT22;2012;49.794;9.722;2023-06-22T14:58:41;31.50;99.90
3996;DHT22;2012;49.794;9.722;2023-06-22T15:01:12;31.30;99.90
3996;DHT22;2012;49.794;9.722;2023-06-22T15:03:39;31.40;99.90
3996;DHT22;2012;49.794;9.722;2023-06-22T15:06:06;31.50;99.90
3996;DHT22;2012;49.794;9.722;2023-06-22T15:08:34;31.60;99.90
3996;DHT22;2012;49.794;9.722;2023-06-22T15:11:01;31.70;99.90
3996;DHT22;2012;49.794;9.722;2023-06-22T15:13:30;31.60;99.90
3996;DHT22;2012;49.794;9.722;2023-06-22T15:16:01;31.60;99.90
3996;DHT22;2012;49.794;9.722;2023-06-22T15:18:30;31.60;97.20
3996;DHT22;2012;49.794;9.722;2023-06-22T15:20:57;31.50;99.10
3996;DHT22;2012;49.794;9.722;2023-06-22T15:23:25;31.40;96.70
3996;DHT22;2012;49.794;9.722;2023-06-22T15:25:52;31.20;99.30
3996;DHT22;2012;49.794;9.722;2023-06-22T15:28:19;31.20;95.80
3996;DHT22;2012;49.794;9.722;2023-06-22T15:30:48;31.20;95.00
3996;DHT22;2012;49.794;9.722;2023-06-22T15:33:16;31.20;97.00
3996;DHT22;2012;49.794;9.722;2023-06-22T15:35:43;31.20;96.70
3996;DHT22;2012;49.794;9.722;2023-06-22T15:38:10;31.20;94.20
3996;DHT22;2012;49.794;9.722;2023-06-22T15:40:37;31.40;96.20
3996;DHT22;2012;49.794;9.722;2023-06-22T15:43:04;31.50;95.50
3996;DHT22;2012;49.794;9.722;2023-06-22T15:45:31;31.40;95.60
3996;DHT22;2012;49.794;9.722;2023-06-22T15:47:58;31.30;94.20
3996;DHT22;2012;49.794;9.722;2023-06-22T15:50:25;31.20;95.10
3996;DHT22;2012;49.794;9.722;2023-06-22T15:52:52;31.00;96.00
3996;DHT22;2012;49.794;9.722;2023-06-22T15:55:19;31.00;92.40
3996;DHT22;2012;49.794;9.722;2023-06-22T15:57:46;30.90;90.20
3996;DHT22;2012;49.794;9.722;2023-06-22T16:00:17;30.80;85.30
3996;DHT22;2012;49.794;9.722;2023-06-22T16:02:45;30.80;89.70
3996;DHT22;2012;49.794;9.722;2023-06-22T16:05:13;30.80;85.00
3996;DHT22;2012;49.794;9.722;2023-06-22T16:07:40;30.80;85.30
3996;DHT22;2012;49.794;9.722;2023-06-22T16:10:07;30.60;84.90
3996;DHT22;2012;49.794;9.722;2023-06-22T16:12:34;30.70;81.20
3996;DHT22;2012;49.794;9.722;2023-06-22T16:15:03;30.60;81.00